Airfield :







YOU CAN JOIN US ON...

 
LOGIN :

Register | Disclaimer

   EN    FR    IT 

 









Legend :    VFR   Marginal VFR   IFR   Intensive IFR   Very Intensive IFR
Visi :
Ceiling :
>= 8 km
>= 3000ft
5 to 8 km
1000 to 3000 ft
1500m to 5 km
500 to 1000 ft
800 to 1500m
200 to 500 ft
< 800m
< 200 ft
Symbols :   Thunderstorms  Fog  Heavy snow  Heavy precipitations  Wind > 20 kt







- Airport Elevation : 160 ft
- IATA code : YYG


CYYG - Charlottetown

CURRENT METAR :
  • 221400Z VRB02KT 1SM R03/P6000FT/U -DZ BR OVC002 10/10 A3019 RMK FG1ST7 SLP226

EXPIRED METARs :
  • 221345Z 22005KT 3/4SM R03/4500VP6000FT/N -DZ BR OVC002 10/10 A3020 RMK FG1ST7 SLP229
  • 221300Z 20004KT 3/4SM R03/6000FT/D BR OVC002 11/11 A3017 RMK FG1ST7 SLP218
  • 221250Z 20005KT 3/4SM R03/P6000FT/N BR OVC002 11/11 A3017 RMK FG1ST7 SLP220
  • 221241Z 19004KT 1/2SM R03/P6000FT/N FG OVC002 11/11 A3017 RMK FG2ST6 SLP219
  • 221234Z 16006KT 150V280 2SM BR OVC003 12/12 A3016 RMK ST8 VIS N 6 SLP216
  • 221222Z 30003KT 260V330 10SM VCFG BKN003 OVC006 12/12 A3017 RMK SF5SC3 VIS SE-SW 3 SLP219
  • 221200Z 21003KT 150V290 6SM -DZ BR OVC003 11/11 A3017 RMK ST8 PRESFR SLP218
  • 221140Z 25004KT 6SM -DZ BR OVC003 11/11 A3018 RMK ST8 SLP221
  • 221121Z 23004KT 210V270 2SM -DZ BR OVC003 11/11 A3017 RMK ST8 SLP219

TAF TAF CYYG
Valid from the 22 at 12:00 until the 23 at 00:00 UTC


221138Z 2212/2224 26008KT 11/2SM -RA -DZ BR OVC003
TEMPO 2212/2214 6SM BR SCT004 OVC025
BECMG 2212/2214 02010KT
FM221400 02010KT 1SM -RA BR OVC004
TEMPO 2214/2224 4SM -DZ BR SCT004 OVC015 RMK NXT FCST BY 221800Z
CZQM FIR / North America



MET'MAP, your aeronautical weather chart ! - Copyright ORBIFLY December 2007 - Disclaimer

ORBIFLY MET'MAP TEAM :

Programming & Development : Alexandra Zaïnal
Concept & Development : Baudouin d'Aumeries
Co-Development & Prog : Marc-Olivier Méhu
Technical & hardware support : Manuel Goepfert

Contact : metmap@orbifly.com




SOURCES & CREDITS :

   NOAA